Time;durP1;ratioP1;P1;durP2;ratioP2;P2;SDS_P1;SDS_P2;PMS_P1;PMS_P2;Temp;Humidity;BMP_temperature;BMP_pressure;BME280_temperature;BME280_humidity;BME280_pressure;Samples;Min_cycle;Max_cycle;Signal;HPM_P1;HPM_P2
2022/09/08 00:00:51;;;;;;;3.80;2.40;;;23.40;76.10;;;-142.21;99.44;112049.66;5053983;28;20615;-79
2022/09/08 00:03:23;;;;;;;3.43;2.20;;;23.40;76.20;;;-142.21;99.35;112049.66;5053812;28;20202;-79
2022/09/08 00:05:56;;;;;;;4.10;2.53;;;23.50;76.10;;;-142.21;99.53;112049.66;5052789;28;20194;-79
2022/09/08 00:08:25;;;;;;;4.27;2.10;;;23.50;76.00;;;-142.21;99.27;112049.66;5051078;28;20228;-79
2022/09/08 00:10:57;;;;;;;3.40;2.07;;;23.50;76.00;;;-142.21;99.51;112049.66;5054291;28;20232;-79
2022/09/08 00:13:28;;;;;;;2.40;2.20;;;23.50;75.80;;;-142.21;99.88;112049.66;5053607;28;20200;-79
2022/09/08 00:15:55;;;;;;;2.47;2.27;;;23.50;75.80;;;-142.21;100.00;112049.66;5053411;28;20236;-79
2022/09/08 00:18:24;;;;;;;3.00;2.27;;;23.50;75.80;;;-142.21;100.00;112049.66;5053310;28;20291;-79
2022/09/08 00:20:51;;;;;;;3.83;2.00;;;23.50;75.60;;;-142.21;100.00;112049.66;5055051;28;20696;-79
2022/09/08 00:23:18;;;;;;;4.90;2.30;;;23.50;75.70;;;-142.21;100.00;112049.66;5052820;28;20269;-79
2022/09/08 00:25:47;;;;;;;4.93;2.03;;;23.40;75.70;;;-142.21;100.00;112049.66;5053991;28;20538;-79
2022/09/08 00:28:15;;;;;;;2.67;2.13;;;23.40;76.30;;;-142.21;100.00;112049.66;5052874;28;20220;-78
2022/09/08 00:30:42;;;;;;;2.10;1.90;;;23.40;76.30;;;-142.21;100.00;112049.66;5034701;28;20227;-79
2022/09/08 00:33:09;;;;;;;4.20;2.43;;;23.30;77.00;;;-142.21;100.00;112049.66;5053130;28;20235;-78
2022/09/08 00:35:38;;;;;;;5.20;2.30;;;23.30;76.30;;;-142.21;100.00;112049.66;5054094;28;20241;-79
2022/09/08 00:38:06;;;;;;;5.67;2.53;;;23.30;76.20;;;-142.21;99.35;112049.66;5053075;28;20569;-79
2022/09/08 00:40:45;;;;;;;2.53;1.83;;;23.30;75.80;;;-142.21;99.35;112049.66;5053538;28;20211;-78
2022/09/08 00:43:31;;;;;;;5.40;2.37;;;23.30;76.10;;;-142.21;99.48;112049.66;5053134;28;20663;-79
2022/09/08 00:46:07;;;;;;;4.37;2.30;;;23.30;76.00;;;-142.21;99.97;112049.66;5053312;28;20236;-79
2022/09/08 00:48:38;;;;;;;2.23;1.73;;;23.40;76.40;;;-142.21;99.66;112049.66;5053706;28;20193;-79
2022/09/08 00:51:06;;;;;;;2.93;2.00;;;23.30;75.90;;;-142.21;98.93;112049.66;5052355;28;20701;-79
2022/09/08 00:53:38;;;;;;;2.90;2.30;;;23.40;75.50;;;-142.21;100.00;112049.66;5053064;28;20205;-79
2022/09/08 00:56:06;;;;;;;4.33;2.27;;;23.40;76.10;;;-142.21;100.00;112049.66;5052825;28;20227;-78
2022/09/08 00:58:39;;;;;;;2.60;2.40;;;23.30;76.30;;;-142.21;100.00;112049.66;5053229;28;20319;-78
2022/09/08 01:01:08;;;;;;;3.77;2.40;;;23.30;76.40;;;-142.21;100.00;112049.66;5052501;28;20617;-79
2022/09/08 01:03:38;;;;;;;3.00;2.20;;;23.20;76.20;;;-142.21;99.96;112049.66;5052819;28;20199;-78
2022/09/08 01:12:43;;;;;;;3.67;2.27;;;23.30;77.10;;;-142.21;100.00;112049.66;5052140;28;20194;-78
2022/09/08 01:14:59;;;;;;;3.40;2.27;;;23.30;76.30;;;-142.21;100.00;112049.66;5052455;28;20233;-79
2022/09/08 01:17:30;;;;;;;3.40;2.13;;;23.20;77.00;;;-142.21;100.00;112049.66;5052342;28;20555;-79
2022/09/08 01:20:01;;;;;;;3.40;2.07;;;23.10;77.30;;;-142.21;100.00;112049.66;5052726;28;20231;-79
2022/09/08 01:22:59;;;;;;;5.40;2.37;;;23.10;77.00;;;-142.21;100.00;112049.66;5051837;28;20273;-79
2022/09/08 01:25:56;;;;;;;4.10;2.37;;;23.00;77.70;;;-142.21;100.00;112049.66;5047177;28;20232;-78
2022/09/08 01:28:33;;;;;;;6.27;2.37;;;23.00;77.90;;;-142.21;100.00;112049.66;5051721;28;20277;-78
2022/09/08 01:31:03;;;;;;;2.60;2.37;;;22.90;77.70;;;-142.21;100.00;112049.66;5053160;28;20217;-79
2022/09/08 01:33:31;;;;;;;3.43;2.50;;;22.90;77.70;;;-142.21;100.00;112049.66;5052239;28;20202;-79
2022/09/08 01:35:59;;;;;;;3.40;2.20;;;22.90;77.40;;;-142.21;100.00;112049.66;5052477;28;20373;-78
2022/09/08 01:38:26;;;;;;;3.13;2.30;;;22.90;77.60;;;-142.21;100.00;112049.66;5052296;28;20598;-79
2022/09/08 01:40:54;;;;;;;3.30;2.10;;;22.90;78.30;;;-142.21;100.00;112049.66;5052602;28;20202;-78
2022/09/08 01:43:21;;;;;;;2.53;2.03;;;22.90;77.50;;;-142.21;100.00;112049.66;5051592;28;20233;-79
2022/09/08 01:45:49;;;;;;;2.47;2.27;;;22.90;77.20;;;-142.21;100.00;112049.66;5052635;28;20288;-78
2022/09/08 01:48:17;;;;;;;2.40;2.20;;;23.00;77.50;;;-142.21;100.00;112049.66;5051969;28;20202;-79
2022/09/08 01:50:45;;;;;;;3.27;2.20;;;23.00;77.60;;;-142.21;100.00;112049.66;5052470;28;20198;-79
2022/09/08 01:53:12;;;;;;;2.20;1.93;;;22.90;77.00;;;-142.21;100.00;112049.66;5051408;28;20225;-79
2022/09/08 01:55:42;;;;;;;2.20;1.97;;;22.80;77.20;;;-142.21;100.00;112049.66;5052247;28;20309;-79
2022/09/08 01:58:09;;;;;;;2.57;2.07;;;22.90;77.60;;;-142.21;100.00;112049.66;5050935;28;20280;-79
2022/09/08 02:00:36;;;;;;;3.20;2.30;;;22.90;77.80;;;-142.21;100.00;112049.66;5052503;28;20194;-79
2022/09/08 02:03:04;;;;;;;4.57;2.47;;;22.90;77.80;;;-142.21;100.00;112049.66;5051418;28;20658;-79
2022/09/08 02:05:32;;;;;;;3.93;2.30;;;22.80;78.00;;;-142.21;100.00;112049.66;5051165;28;20672;-79
2022/09/08 02:07:59;;;;;;;3.87;2.23;;;22.80;78.10;;;-142.21;100.00;112049.66;5051639;28;20197;-79
2022/09/08 02:10:28;;;;;;;2.47;2.27;;;22.70;78.00;;;-142.21;100.00;112049.66;5034284;28;20616;-79
2022/09/08 02:12:55;;;;;;;3.47;2.63;;;22.70;79.20;;;-142.21;100.00;112049.66;5051066;28;20224;-79
2022/09/08 02:15:22;;;;;;;2.60;2.33;;;22.70;78.50;;;-142.21;100.00;112049.66;5051233;28;20205;-78
2022/09/08 02:17:49;;;;;;;4.23;2.30;;;22.70;78.40;;;-142.21;100.00;112049.66;5051622;28;20225;-79
2022/09/08 02:20:18;;;;;;;3.37;2.50;;;22.70;78.70;;;-142.21;100.00;112049.66;5051591;28;20293;-79
2022/09/08 02:22:45;;;;;;;2.53;2.13;;;22.80;79.70;;;-142.21;100.00;112049.66;5051326;28;20202;-79
2022/09/08 02:25:12;;;;;;;4.20;2.60;;;22.80;78.60;;;-142.21;100.00;112049.66;5046717;28;20289;-78
2022/09/08 02:27:39;;;;;;;2.63;2.43;;;22.80;79.00;;;-142.21;100.00;112049.66;5051675;28;20200;-78
2022/09/08 02:30:08;;;;;;;5.80;2.40;;;22.90;79.00;;;-142.21;100.00;112049.66;5051542;28;20202;-77
2022/09/08 02:32:35;;;;;;;3.20;2.80;;;22.90;79.20;;;-142.21;100.00;112049.66;5051314;28;20224;-77
2022/09/08 02:35:02;;;;;;;3.43;2.40;;;22.90;78.80;;;-142.21;100.00;112049.66;5051183;28;20205;-78
2022/09/08 02:37:31;;;;;;;3.40;2.50;;;22.90;78.70;;;-142.21;100.00;112049.66;5051224;28;21080;-77
2022/09/08 02:39:58;;;;;;;3.10;2.50;;;23.00;78.60;;;-142.21;100.00;112049.66;5051167;28;20207;-78
2022/09/08 02:42:25;;;;;;;2.90;2.57;;;23.00;78.30;;;-142.21;100.00;112049.66;5050522;28;20388;-78
2022/09/08 02:44:52;;;;;;;3.80;2.50;;;22.90;78.80;;;-142.21;100.00;112049.66;5051437;28;20297;-79
2022/09/08 02:47:19;;;;;;;3.17;2.50;;;23.00;78.80;;;-142.21;100.00;112049.66;5050557;28;20205;-77
2022/09/08 02:49:46;;;;;;;3.47;2.37;;;23.00;78.60;;;-142.21;100.00;112049.66;5051536;28;20208;-78
2022/09/08 02:52:14;;;;;;;3.37;2.60;;;23.00;78.70;;;-142.21;100.00;112049.66;5050799;28;20217;-78
2022/09/08 02:54:44;;;;;;;2.70;2.30;;;23.00;78.90;;;-142.21;100.00;112049.66;5050830;28;20217;-77
2022/09/08 02:57:11;;;;;;;4.20;2.97;;;23.00;79.20;;;-142.21;100.00;112049.66;5032978;28;20206;-79
2022/09/08 02:59:38;;;;;;;3.03;2.30;;;23.00;79.10;;;-142.21;100.00;112049.66;5050847;28;20609;-79
2022/09/08 03:02:05;;;;;;;3.00;2.70;;;23.10;79.40;;;-142.21;100.00;112049.66;5051003;28;20576;-77
2022/09/08 03:04:32;;;;;;;3.73;2.60;;;23.10;79.40;;;-142.21;100.00;112049.66;5050903;28;20201;-79
2022/09/08 03:06:59;;;;;;;4.23;2.67;;;23.00;78.50;;;-142.21;100.00;112049.66;5050707;28;20209;-77
2022/09/08 03:09:29;;;;;;;4.77;2.50;;;23.00;78.60;;;-142.21;100.00;112049.66;5049846;28;20202;-78
2022/09/08 03:11:57;;;;;;;3.47;2.50;;;22.90;78.90;;;-142.21;100.00;112049.66;5051135;28;20221;-78
2022/09/08 03:14:25;;;;;;;2.47;2.20;;;22.90;79.30;;;-142.21;100.00;112049.66;5050881;28;20536;-79
2022/09/08 03:16:52;;;;;;;4.53;2.83;;;22.90;79.30;;;-142.21;100.00;112049.66;5051086;28;20230;-79
2022/09/08 03:19:19;;;;;;;2.60;2.20;;;22.90;79.40;;;-142.21;100.00;112049.66;5050490;28;20237;-76
2022/09/08 03:21:46;;;;;;;3.47;2.40;;;22.90;79.20;;;-142.21;100.00;112049.66;5050780;28;20198;-78
2022/09/08 03:24:14;;;;;;;5.67;2.37;;;22.90;79.30;;;-142.21;100.00;112049.66;5050403;28;20214;-79
2022/09/08 03:26:41;;;;;;;3.30;2.10;;;22.80;79.30;;;-142.21;100.00;112049.66;5051699;28;20581;-78
2022/09/08 03:29:09;;;;;;;6.47;2.97;;;22.70;79.50;;;-142.21;100.00;112049.66;5054926;28;20222;-79
2022/09/08 03:31:38;;;;;;;3.10;2.53;;;22.80;79.80;;;-142.21;100.00;112049.66;5049617;28;20276;-78
2022/09/08 03:34:05;;;;;;;4.73;2.37;;;22.70;79.90;;;-142.21;100.00;112049.66;5051134;28;20558;-78
2022/09/08 03:36:32;;;;;;;3.57;2.70;;;22.70;80.10;;;-142.21;100.00;112049.66;5017090;28;20236;-79
2022/09/08 03:38:59;;;;;;;2.87;2.33;;;22.70;80.30;;;-142.21;100.00;112049.66;5055648;28;20201;-79
2022/09/08 03:41:26;;;;;;;3.13;2.73;;;22.60;80.60;;;-142.21;100.00;112049.66;5053980;28;20659;-79
2022/09/08 03:43:53;;;;;;;5.17;2.70;;;22.50;80.70;;;-142.21;100.00;112049.66;5054651;28;20216;-79
2022/09/08 03:46:22;;;;;;;4.80;2.83;;;22.50;81.00;;;-142.21;100.00;112049.66;5054029;28;20212;-78
2022/09/08 03:48:49;;;;;;;5.13;2.77;;;22.50;80.70;;;-142.21;100.00;112049.66;5054492;28;20210;-79
2022/09/08 03:51:22;;;;;;;5.67;2.53;;;22.50;80.70;;;-142.21;100.00;112049.66;5054129;28;20202;-80
2022/09/08 03:53:50;;;;;;;3.27;2.43;;;22.50;81.00;;;-142.21;100.00;112049.66;5054976;28;20201;-79
2022/09/08 03:56:17;;;;;;;5.73;2.20;;;22.40;81.20;;;-142.21;100.00;112049.66;5053586;28;20268;-79
2022/09/08 03:58:45;;;;;;;3.60;2.40;;;22.30;81.10;;;-142.21;100.00;112049.66;5052651;28;20337;-79
2022/09/08 04:01:17;;;;;;;2.40;2.13;;;22.20;81.00;;;-142.21;100.00;112049.66;5054138;28;20209;-79
2022/09/08 04:03:46;;;;;;;3.10;2.00;;;22.20;81.40;;;-142.21;100.00;112049.66;5046009;28;20190;-79
2022/09/08 04:06:15;;;;;;;2.10;1.90;;;22.10;81.40;;;-142.21;100.00;112049.66;5054109;28;20210;-78
2022/09/08 04:08:42;;;;;;;2.03;1.83;;;21.90;81.20;;;-142.21;100.00;112049.66;5053814;28;20236;-78
2022/09/08 04:11:10;;;;;;;2.07;1.83;;;22.00;81.90;;;-142.21;100.00;112049.66;5052845;28;20277;-78
2022/09/08 04:13:38;;;;;;;1.87;1.50;;;21.90;81.70;;;-142.21;100.00;112049.66;5052462;28;20229;-79
2022/09/08 04:16:05;;;;;;;1.70;1.60;;;21.80;81.50;;;-142.21;100.00;112049.66;5054448;28;20555;-79
2022/09/08 04:18:33;;;;;;;1.60;1.50;;;21.80;82.10;;;-142.21;100.00;112049.66;5053724;28;20297;-79
2022/09/08 04:21:05;;;;;;;1.80;1.70;;;21.70;82.00;;;-142.21;100.00;112049.66;5053725;28;20218;-78
2022/09/08 04:23:33;;;;;;;2.53;1.67;;;21.70;82.30;;;-142.21;100.00;112049.66;5053059;28;20957;-79
2022/09/08 04:26:03;;;;;;;1.40;1.30;;;21.80;82.50;;;-142.21;100.00;112049.66;5054246;28;20209;-79
2022/09/08 04:28:31;;;;;;;1.50;1.40;;;21.80;82.30;;;-142.21;100.00;112049.66;5053059;28;20675;-78
2022/09/08 04:30:58;;;;;;;1.33;1.23;;;21.60;82.60;;;-142.21;100.00;112049.66;5053948;28;20289;-79
2022/09/08 04:33:28;;;;;;;2.27;1.50;;;21.50;82.40;;;-142.21;100.00;112049.66;5053045;28;20253;-79
2022/09/08 04:35:55;;;;;;;1.20;1.10;;;21.50;82.90;;;-142.21;100.00;112049.66;5054451;28;20289;-80
2022/09/08 04:38:24;;;;;;;1.40;1.27;;;21.50;82.70;;;-142.21;100.00;112049.66;5052790;28;20214;-79
2022/09/08 04:40:51;;;;;;;2.40;1.50;;;21.50;82.00;;;-142.21;100.00;112049.66;5052747;28;20297;-79
2022/09/08 04:43:19;;;;;;;2.53;1.47;;;21.50;82.30;;;-142.21;100.00;112049.66;5052989;28;20240;-80
2022/09/08 04:45:46;;;;;;;1.47;1.30;;;21.50;82.40;;;-142.21;100.00;112049.66;5053445;28;20209;-79
2022/09/08 04:48:13;;;;;;;1.23;1.13;;;21.40;82.00;;;-142.21;100.00;112049.66;5051720;28;20216;-79
2022/09/08 04:50:40;;;;;;;2.07;1.50;;;21.40;81.60;;;-142.21;100.00;112049.66;5052619;28;20662;-79
2022/09/08 04:53:08;;;;;;;1.67;1.50;;;21.40;81.40;;;-142.21;100.00;112049.66;5052020;28;20744;-79
2022/09/08 04:55:39;;;;;;;1.37;1.27;;;21.30;81.00;;;-142.21;100.00;112049.66;5052651;28;20225;-79
2022/09/08 04:58:06;;;;;;;3.27;1.43;;;21.30;81.00;;;-142.21;100.00;112049.66;5051480;28;20206;-78
2022/09/08 05:00:33;;;;;;;1.43;1.33;;;21.20;81.10;;;-142.21;100.00;112049.66;5052569;28;20200;-78
2022/09/08 05:03:02;;;;;;;2.43;1.50;;;21.10;81.10;;;-142.21;100.00;112049.66;5052754;28;20241;-78
2022/09/08 05:05:29;;;;;;;1.77;1.40;;;21.00;81.30;;;-142.21;100.00;112049.66;5052699;28;20206;-79
2022/09/08 05:07:57;;;;;;;2.43;1.20;;;20.90;82.10;;;-142.21;100.00;112049.66;5053174;28;20209;-79
2022/09/08 05:10:24;;;;;;;1.03;1.00;;;20.90;81.30;;;-142.21;100.00;112049.66;5052905;28;20205;-79
2022/09/08 05:12:52;;;;;;;2.40;1.60;;;20.80;81.70;;;-142.21;100.00;112049.66;5052865;28;20221;-79
2022/09/08 05:15:20;;;;;;;1.23;1.00;;;20.80;81.10;;;-142.21;100.00;112049.66;5052601;28;20247;-79
2022/09/08 05:17:47;;;;;;;1.80;1.03;;;20.70;80.30;;;-142.21;100.00;112049.66;5051862;28;20240;-80
2022/09/08 05:20:15;;;;;;;2.50;0.77;;;20.60;80.40;;;-142.21;100.00;112049.66;5051346;28;20285;-79
2022/09/08 05:22:42;;;;;;;1.70;0.90;;;20.60;80.30;;;-142.21;100.00;112049.66;5052504;28;20547;-77
2022/09/08 05:25:10;;;;;;;1.07;1.00;;;20.60;80.10;;;-142.21;100.00;112049.66;5052781;28;20264;-74
2022/09/08 05:27:37;;;;;;;1.57;0.90;;;20.60;80.10;;;-142.21;100.00;112049.66;5051999;28;20283;-76
2022/09/08 05:30:08;;;;;;;1.50;0.97;;;20.60;80.20;;;-142.21;100.00;112049.66;5052626;28;20202;-79
2022/09/08 05:32:36;;;;;;;1.90;1.07;;;20.60;80.10;;;-142.21;100.00;112049.66;5052018;28;20263;-77
2022/09/08 05:35:03;;;;;;;1.27;1.03;;;20.60;79.90;;;-142.21;100.00;112049.66;5055055;28;20210;-72
2022/09/08 05:37:30;;;;;;;1.17;0.90;;;20.60;79.30;;;-142.21;100.00;112049.66;5054193;28;20209;-74
2022/09/08 05:39:57;;;;;;;2.57;0.90;;;20.50;78.80;;;-142.21;100.00;112049.66;5051293;28;20285;-77
2022/09/08 05:42:24;;;;;;;1.17;1.07;;;20.50;79.00;;;-142.21;100.00;112049.66;5051365;28;20666;-80
2022/09/08 05:44:52;;;;;;;0.80;0.70;;;20.40;79.40;;;-142.21;100.00;112049.66;5052291;28;20229;-77
2022/09/08 05:47:20;;;;;;;1.80;0.93;;;20.50;79.20;;;-142.21;100.00;112049.66;5052071;28;20228;-80
2022/09/08 05:49:48;;;;;;;1.33;0.73;;;20.60;79.40;;;-142.21;100.00;112049.66;5052072;28;20237;-78
2022/09/08 05:52:15;;;;;;;1.67;1.10;;;20.50;78.50;;;-142.21;100.00;112049.66;5051709;28;20761;-79
2022/09/08 05:54:44;;;;;;;1.13;1.00;;;20.50;79.10;;;-142.21;100.00;112049.66;5051538;28;20237;-79
2022/09/08 05:57:11;;;;;;;2.07;1.30;;;20.40;79.30;;;-142.21;100.00;112049.66;5051953;28;20240;-78
2022/09/08 05:59:39;;;;;;;1.97;0.87;;;20.40;79.20;;;-142.21;100.00;112049.66;5051002;28;20594;-79
2022/09/08 06:02:06;;;;;;;0.87;0.87;;;20.40;79.10;;;-142.21;100.00;112049.66;5051546;28;20217;-80
2022/09/08 06:04:35;;;;;;;1.57;0.97;;;20.40;78.70;;;-142.21;100.00;112049.66;5051471;28;20275;-80
2022/09/08 06:07:02;;;;;;;1.27;1.00;;;20.40;79.10;;;-142.21;100.00;112049.66;5052305;28;20233;-80
2022/09/08 06:09:32;;;;;;;2.30;0.90;;;20.50;78.80;;;-142.21;100.00;112049.66;5051170;28;20232;-79
2022/09/08 06:11:59;;;;;;;0.93;0.90;;;20.50;78.50;;;-142.21;100.00;112049.66;5033749;28;20222;-80
2022/09/08 06:14:26;;;;;;;0.77;0.77;;;20.50;78.80;;;-142.21;100.00;112049.66;5050940;28;20226;-78
2022/09/08 06:16:54;;;;;;;1.10;1.00;;;20.50;78.50;;;-142.21;100.00;112049.66;5051963;28;20221;-79
2022/09/08 06:19:21;;;;;;;1.27;0.80;;;20.60;78.60;;;-142.21;100.00;112049.66;5051080;28;20740;-79
2022/09/08 06:21:50;;;;;;;0.87;0.80;;;20.70;78.70;;;-142.21;100.00;112049.66;5055070;28;20721;-79
2022/09/08 06:24:17;;;;;;;1.00;0.80;;;20.70;78.60;;;-142.21;100.00;112049.66;5050951;28;20205;-78
2022/09/08 06:27:06;;;;;;;1.57;0.93;;;20.80;78.30;;;-142.21;100.00;112049.66;5050697;28;20698;-78
2022/09/08 06:29:58;;;;;;;1.43;1.30;;;20.80;78.00;;;-142.21;100.00;112049.66;5030755;28;20221;-78
2022/09/08 06:32:33;;;;;;;1.27;0.80;;;20.70;78.30;;;-142.21;100.00;112049.66;5032761;28;20203;-78
2022/09/08 06:35:10;;;;;;;1.43;1.07;;;20.70;78.20;;;-142.21;100.00;112049.66;5050268;28;20247;-79
2022/09/08 06:37:48;;;;;;;1.47;1.07;;;20.70;78.20;;;-142.21;100.00;112049.66;5050983;28;20192;-78
2022/09/08 06:40:24;;;;;;;1.30;1.20;;;20.70;78.60;;;-142.21;100.00;112049.66;5051627;28;20190;-79
2022/09/08 06:43:02;;;;;;;1.20;1.10;;;20.70;78.50;;;-142.21;100.00;112049.66;5051508;28;20225;-78
2022/09/08 06:45:37;;;;;;;2.80;1.50;;;20.70;78.30;;;-142.21;100.00;112049.66;5051368;28;20194;-79
2022/09/08 06:48:30;;;;;;;2.00;1.10;;;20.70;78.00;;;-142.21;100.00;112049.66;5051185;28;20228;-79
2022/09/08 06:51:20;;;;;;;1.40;1.03;;;20.60;79.10;;;-142.21;100.00;112049.66;5051761;28;20193;-78
2022/09/08 06:54:03;;;;;;;1.90;1.00;;;20.60;78.70;;;-142.21;100.00;112049.66;5050575;28;20218;-77
2022/09/08 06:56:49;;;;;;;1.27;1.17;;;20.60;78.30;;;-142.21;99.49;112049.66;5051172;28;20229;-78
2022/09/08 06:59:47;;;;;;;1.43;0.80;;;20.60;78.00;;;-142.21;99.99;112049.66;5051545;28;20607;-78
2022/09/08 07:02:54;;;;;;;1.10;1.00;;;20.50;78.20;;;-142.21;100.00;112049.66;5051441;28;20202;-78
2022/09/08 07:05:51;;;;;;;2.00;0.90;;;20.40;78.40;;;-142.21;100.00;112049.66;5031347;28;20549;-79
2022/09/08 07:08:59;;;;;;;0.63;0.63;;;20.30;78.60;;;-142.21;99.92;112049.66;5051054;28;20460;-79
2022/09/08 07:11:51;;;;;;;1.33;0.80;;;20.30;78.50;;;-142.21;99.35;112049.66;5029695;28;20240;-79
2022/09/08 07:15:08;;;;;;;1.10;1.00;;;20.30;78.50;;;-142.21;99.53;112049.66;5035329;28;20219;-79
2022/09/08 07:17:46;;;;;;;0.80;0.77;;;20.40;78.90;;;-142.21;98.95;112049.66;5016141;28;20206;-78
2022/09/08 07:20:16;;;;;;;1.33;1.00;;;20.40;78.20;;;-142.21;98.67;112049.66;5035609;28;20219;-79
2022/09/08 07:22:52;;;;;;;0.70;0.70;;;20.60;78.80;;;-142.21;98.26;112049.66;5034377;28;20197;-79
2022/09/08 07:25:28;;;;;;;1.17;1.00;;;20.60;77.60;;;-142.21;97.53;112049.66;5035213;28;20190;-77
2022/09/08 07:28:06;;;;;;;1.87;0.77;;;20.60;77.00;;;-142.21;98.05;112049.66;5035191;28;20194;-79
2022/09/08 07:30:37;;;;;;;1.30;1.20;;;20.60;77.60;;;-142.21;98.09;112049.66;5034518;28;20611;-78
2022/09/08 07:33:16;;;;;;;2.43;1.20;;;20.60;77.60;;;-142.21;97.60;112049.66;5035292;28;20276;-79
2022/09/08 07:36:14;;;;;;;0.80;0.80;;;20.70;77.10;;;-142.21;98.08;112049.66;5034758;28;20206;-78
2022/09/08 07:38:48;;;;;;;1.00;1.00;;;20.70;77.70;;;-142.21;97.21;112049.66;5034120;28;20210;-77
2022/09/08 07:41:22;;;;;;;1.90;1.00;;;20.80;77.20;;;-142.21;96.19;112049.66;5034816;28;20191;-79
2022/09/08 07:43:54;;;;;;;1.23;0.90;;;20.70;76.20;;;-142.21;95.90;112049.66;5034588;28;20237;-79
2022/09/08 07:46:54;;;;;;;0.80;0.80;;;20.60;76.40;;;-142.21;96.57;112049.66;5034995;28;20222;-78
2022/09/08 07:49:34;;;;;;;1.13;0.80;;;20.60;77.00;;;-142.21;97.12;112049.66;5035477;28;20204;-79
2022/09/08 07:52:18;;;;;;;1.20;1.10;;;20.70;77.00;;;-142.21;96.85;112049.66;5034382;28;20230;-79
2022/09/08 07:55:03;;;;;;;2.83;1.10;;;20.80;76.70;;;-142.21;96.56;112049.66;5034384;28;20240;-80
2022/09/08 07:57:46;;;;;;;1.03;0.93;;;20.70;76.40;;;-142.21;97.13;112049.66;5034329;28;20674;-79
2022/09/08 08:00:18;;;;;;;2.50;1.17;;;20.80;77.10;;;-142.21;96.41;112049.66;5034209;28;20278;-79
2022/09/08 08:03:22;;;;;;;1.07;0.97;;;20.70;76.30;;;-142.21;97.05;112049.66;5034297;28;20230;-79
2022/09/08 08:06:01;;;;;;;1.67;0.73;;;20.80;77.10;;;-142.21;97.26;112049.66;5032206;28;20210;-78
2022/09/08 08:08:43;;;;;;;1.23;1.13;;;20.90;76.60;;;-142.21;95.69;112049.66;5034235;28;20216;-79
2022/09/08 08:11:21;;;;;;;1.30;1.20;;;20.90;76.00;;;-142.21;95.93;112049.66;5034364;28;20190;-79
2022/09/08 08:14:11;;;;;;;1.80;1.10;;;20.80;76.00;;;-142.21;96.02;112049.66;5050173;28;20317;-78
2022/09/08 08:16:57;;;;;;;1.20;1.10;;;20.70;76.30;;;-142.21;96.10;112049.66;5053784;28;20186;-78
2022/09/08 08:19:52;;;;;;;0.80;0.70;;;20.80;76.40;;;-142.21;96.12;112049.66;5054227;28;20288;-80
2022/09/08 08:22:53;;;;;;;1.17;0.67;;;20.80;76.40;;;-142.21;95.67;112049.66;5021826;28;20206;-79
2022/09/08 08:25:29;;;;;;;1.17;1.03;;;20.90;76.10;;;-142.21;95.25;112049.66;5035697;28;20205;-77
2022/09/08 08:28:13;;;;;;;1.37;0.80;;;20.90;76.50;;;-142.21;95.26;112049.66;5054295;28;20190;-77
2022/09/08 08:30:52;;;;;;;2.40;0.97;;;20.80;76.00;;;-142.21;95.40;112049.66;5053368;28;20243;-80
2022/09/08 08:33:28;;;;;;;1.10;1.00;;;20.70;76.10;;;-142.21;94.82;112049.66;5054151;28;20632;-79
2022/09/08 08:36:04;;;;;;;1.90;0.90;;;20.70;75.90;;;-142.21;94.56;112049.66;5054021;28;20248;-79
2022/09/08 08:38:37;;;;;;;1.17;0.93;;;20.70;75.80;;;-142.21;94.82;112049.66;5053207;28;20212;-79
2022/09/08 08:41:19;;;;;;;1.30;1.07;;;20.80;75.80;;;-142.21;94.92;112049.66;5054109;28;20190;-79
2022/09/08 08:44:13;;;;;;;1.20;1.10;;;20.90;75.90;;;-142.21;94.43;112049.66;5052849;28;20244;-80
2022/09/08 08:47:10;;;;;;;1.10;1.00;;;20.90;75.50;;;-142.21;94.63;112049.66;5053402;28;20605;-79
2022/09/08 08:50:13;;;;;;;1.27;1.17;;;21.00;75.60;;;-142.21;94.82;112049.66;5052993;28;20694;-80
2022/09/08 08:53:10;;;;;;;2.57;1.20;;;21.10;75.40;;;-142.21;93.82;112049.66;5053384;28;20198;-80
2022/09/08 08:55:50;;;;;;;1.13;1.03;;;21.20;75.10;;;-142.21;93.40;112049.66;5052806;28;20760;-79
2022/09/08 08:58:50;;;;;;;2.47;1.40;;;21.20;74.80;;;-142.21;92.38;112049.66;5018116;28;20281;-79
2022/09/08 09:01:56;;;;;;;1.63;0.90;;;21.40;74.20;;;-142.21;91.89;112049.66;5053403;28;20642;-79
2022/09/08 09:04:58;;;;;;;3.27;1.00;;;21.40;73.50;;;-142.21;91.90;112049.66;5052853;28;20205;-81
2022/09/08 09:08:14;;;;;;;1.13;0.80;;;21.30;73.50;;;-142.21;92.25;112049.66;5051195;28;20620;-79
2022/09/08 09:11:19;;;;;;;0.70;0.60;;;21.30;74.20;;;-142.21;90.27;112049.66;5019633;28;20210;-79
2022/09/08 09:14:44;;;;;;;2.00;0.90;;;21.60;73.10;;;-142.21;90.26;112049.66;5051296;28;20221;-74
2022/09/08 09:17:35;;;;;;;1.60;0.80;;;21.60;72.70;;;-142.21;88.59;112049.66;5023026;28;20241;-77
2022/09/08 09:20:51;;;;;;;0.93;0.77;;;21.50;71.80;;;-142.21;88.75;112049.66;5053047;28;20190;-78
2022/09/08 09:23:50;;;;;;;0.70;0.70;;;21.50;72.50;;;-142.21;85.85;112049.66;5039960;28;20214;-79
2022/09/08 09:26:20;;;;;;;0.97;0.97;;;21.80;70.50;;;-142.21;83.91;112049.66;5050645;28;20202;-79
2022/09/08 09:29:10;;;;;;;1.50;0.70;;;21.80;69.20;;;-142.21;83.87;112049.66;5052470;28;20346;-77
2022/09/08 09:32:30;;;;;;;0.73;0.70;;;21.80;69.20;;;-142.21;82.80;112049.66;5052507;28;20218;-79
2022/09/08 09:35:55;;;;;;;0.60;0.60;;;21.90;67.70;;;-142.21;79.66;112049.66;5051299;28;20702;-79
2022/09/08 09:39:07;;;;;;;2.40;1.23;;;22.10;67.20;;;-142.21;78.77;112049.66;5052760;28;20259;-78
2022/09/08 09:42:13;;;;;;;0.70;0.60;;;22.40;66.60;;;-142.21;75.42;112049.66;5051859;28;20285;-80
2022/09/08 09:45:09;;;;;;;1.90;0.87;;;22.70;65.40;;;-142.21;71.48;112049.66;5052194;28;20194;-79
2022/09/08 09:48:11;;;;;;;0.90;0.80;;;22.70;62.50;;;-142.21;72.04;112049.66;5052098;28;20233;-76
2022/09/08 09:51:04;;;;;;;0.47;0.47;;;22.60;63.70;;;-142.21;72.11;112049.66;5052154;28;20190;-76
2022/09/08 09:53:54;;;;;;;0.40;0.40;;;22.40;62.50;;;-142.21;73.14;112049.66;5052409;28;20210;-76
2022/09/08 09:57:19;;;;;;;0.43;0.43;;;22.40;63.10;;;-142.21;72.44;112049.66;5052221;28;20780;-79
2022/09/08 10:00:25;;;;;;;0.57;0.50;;;22.60;62.80;;;-142.21;71.55;112049.66;5051321;28;20233;-79
2022/09/08 10:03:38;;;;;;;0.77;0.70;;;22.80;62.90;;;-142.21;70.61;112049.66;5050628;28;20193;-78
2022/09/08 10:06:56;;;;;;;0.80;0.80;;;22.90;61.80;;;-142.21;70.42;112049.66;5051654;28;20190;-76
2022/09/08 10:10:14;;;;;;;0.80;0.63;;;23.10;62.20;;;-142.21;71.17;112049.66;5051297;28;20300;-77
2022/09/08 10:13:44;;;;;;;2.63;0.40;;;23.10;62.20;;;-142.21;70.48;112049.66;5038071;28;20315;-77
2022/09/08 10:17:08;;;;;;;0.63;0.50;;;23.20;61.60;;;-142.21;68.97;112049.66;5031384;28;20206;-80
2022/09/08 10:20:25;;;;;;;0.77;0.67;;;23.30;60.90;;;-142.21;69.01;112049.66;5021948;28;20210;-77
2022/09/08 10:23:52;;;;;;;1.37;0.80;;;23.30;60.50;;;-142.21;67.45;112049.66;5050698;28;20195;-78
2022/09/08 10:27:18;;;;;;;2.00;0.90;;;23.40;59.60;;;-142.21;68.72;112049.66;5026254;28;20244;-76
2022/09/08 10:30:12;;;;;;;1.37;0.73;;;23.20;59.80;;;-142.21;69.23;112049.66;5037301;28;20263;-75
2022/09/08 10:33:28;;;;;;;1.50;0.60;;;23.10;60.80;;;-142.21;67.75;112049.66;5050319;28;20196;-78
2022/09/08 10:36:07;;;;;;;1.07;0.83;;;23.40;60.20;;;-142.21;67.01;112049.66;5045871;28;20242;-78
2022/09/08 10:38:59;;;;;;;1.23;0.60;;;23.50;59.50;;;-142.21;67.81;112049.66;5051369;28;20209;-76
2022/09/08 10:42:36;;;;;;;1.27;0.77;;;23.60;60.20;;;-142.21;68.55;112049.66;5051309;28;20572;-77
2022/09/08 10:46:02;;;;;;;1.03;0.73;;;23.70;59.80;;;-142.21;68.64;112049.66;5050562;28;20263;-77